Demo 6

Misión y Visión

La misión es proporcionar información fiable a la navegación aérea, contribuyendo a la seguridad, regularidad y eficiencia de la Navegación Aérea Internacional

La visión es contribuir sustancialmente al desarrollo de conocimientos y a la utilización de la meteorología aeronáutica a nivel nacional e internacional, mediante la innovación y la coparticipación con sectores sociales y productivos de la sociedad.

 
  Inicio
  Metar
  Taf
  Wintemp
  SIGMET
  Avisos
  Pronósticos
  Carpeta Meteorologica
  Imágenes Satelitales
  Climatología Aeronáutica
   
  ¿Quienes Somos?
  Contacto
  Eventos



DIRECCIONES PARA INFORMES NACIONALES E INTERNACIONALES
(Metar /Speci - TAF)



http://adds.aviationweather.gov/tafs/index.php

http://www.ogimet.com/metars.phtml



PRONÓSTICOS DE AERÓDROMO

Cuando sea necesario, el encabezamiento abreviado puede incluir un cuarto grupo consistente en tres letras para identificar los boletines demorados (RRA), corregidos(CCA) o enmendados (AAA). Los boletines adicionales demorados, corregidos o enmendados deben identificarse con las letras RRB, RRC, etc.; CCB, CCC,etc.;AAB, AAC,etc.



ESTACIONES DESCRIPCION
MPTO (M) 132300Z 04007KT 9999 SCT018 29/23 Q1009 NOSIG=  
MPBO (M) 132300Z 00000KT 9999 SCT016 BKN080 Q1014  
MPCH (M) 132300Z 35004KT 9999 FEW020 BKN080 25/24 Q1015 RMK PCPN DSNT E  
MPSA (M)  
MPCE (M) 132300Z 35010KT 9999 SCT025 29/24 Q1010  
MPPN (M) 131900Z 03016KT(E) 9999 SCT018=  
MPSM (M) 132300Z 34012KT(E) CAVOK 27/22 Q1009  
MPJE (M)  
MPPA (M) 132300Z 35009KT 9999 FEW020 28/24 Q1009  
MPMG (M) 132300Z 32008KT 9999 FEW018 29/23 Q1010 NOSIG  
MPDA (M) 132300Z 19006KT 9999 FEW018 29/24 Q1010 RMK PCPN NW-N  
MPVR (M)  
MPWN (M)  
MPOA (M)  
MPMF (M)  
MPEJ (M) 131900Z 03014KT(E) 9000 SCT020 Q1011 HZ ALQDS=  


CLIMATICAS

MPTO

13-DICIEMBRE-2018

 

PCPN (mm)

T° MAX

T° MIN

VIENTO MAX (KT)

HORA

VIENTO PREDOM (KT)

0.0 mm

32.9

23.0

36011KT

1800Z

VRB03KT

CLIMATICAS

MPMG

12-DICIEMBRE-2018

PCPN (mm)

T° MAX T° MIN VIENTO MAX (KT) HORA VIENTO PREDOM (KT)
0.0 31.6

24.3

35016KT

1600Z

NNW

 

 
 

Found

The document has moved here.